sensor_id;sensor_type;location;lat;lon;timestamp;P1;durP1;ratioP1;P2;durP2;ratioP2
13560;SDS011;6852;51.686;5.314;2023-03-14T00:01:29;4.93;;;1.00;;
13560;SDS011;6852;51.686;5.314;2023-03-14T00:03:56;3.47;;;1.07;;
13560;SDS011;6852;51.686;5.314;2023-03-14T00:06:23;2.73;;;1.10;;
13560;SDS011;6852;51.686;5.314;2023-03-14T00:08:50;2.80;;;1.10;;
13560;SDS011;6852;51.686;5.314;2023-03-14T00:11:18;3.47;;;1.23;;
13560;SDS011;6852;51.686;5.314;2023-03-14T00:13:47;5.67;;;1.40;;
13560;SDS011;6852;51.686;5.314;2023-03-14T00:16:15;4.03;;;1.37;;
13560;SDS011;6852;51.686;5.314;2023-03-14T00:18:42;3.83;;;1.27;;
13560;SDS011;6852;51.686;5.314;2023-03-14T00:21:09;12.53;;;1.83;;
13560;SDS011;6852;51.686;5.314;2023-03-14T00:23:38;5.17;;;1.47;;
13560;SDS011;6852;51.686;5.314;2023-03-14T00:26:08;4.67;;;1.60;;
13560;SDS011;6852;51.686;5.314;2023-03-14T00:28:42;5.53;;;1.67;;
13560;SDS011;6852;51.686;5.314;2023-03-14T00:31:11;3.57;;;1.10;;
13560;SDS011;6852;51.686;5.314;2023-03-14T00:33:39;3.20;;;1.07;;
13560;SDS011;6852;51.686;5.314;2023-03-14T00:36:08;4.53;;;1.23;;
13560;SDS011;6852;51.686;5.314;2023-03-14T00:38:37;2.50;;;1.17;;
13560;SDS011;6852;51.686;5.314;2023-03-14T00:41:06;5.73;;;1.50;;
13560;SDS011;6852;51.686;5.314;2023-03-14T00:43:34;4.77;;;1.47;;
13560;SDS011;6852;51.686;5.314;2023-03-14T00:46:01;7.17;;;1.53;;
13560;SDS011;6852;51.686;5.314;2023-03-14T00:48:28;6.53;;;1.40;;
13560;SDS011;6852;51.686;5.314;2023-03-14T00:50:55;3.53;;;1.07;;
13560;SDS011;6852;51.686;5.314;2023-03-14T00:53:22;3.57;;;1.10;;
13560;SDS011;6852;51.686;5.314;2023-03-14T00:55:49;4.00;;;0.90;;
13560;SDS011;6852;51.686;5.314;2023-03-14T00:58:16;3.27;;;1.20;;
13560;SDS011;6852;51.686;5.314;2023-03-14T01:00:44;4.93;;;1.07;;
13560;SDS011;6852;51.686;5.314;2023-03-14T01:03:12;2.83;;;0.80;;
13560;SDS011;6852;51.686;5.314;2023-03-14T01:05:40;7.10;;;1.27;;
13560;SDS011;6852;51.686;5.314;2023-03-14T01:08:07;6.10;;;1.13;;
13560;SDS011;6852;51.686;5.314;2023-03-14T01:10:37;3.27;;;0.90;;
13560;SDS011;6852;51.686;5.314;2023-03-14T01:13:05;2.93;;;1.03;;
13560;SDS011;6852;51.686;5.314;2023-03-14T01:15:32;5.30;;;1.20;;
13560;SDS011;6852;51.686;5.314;2023-03-14T01:18:00;4.93;;;1.17;;
13560;SDS011;6852;51.686;5.314;2023-03-14T01:20:27;3.43;;;0.83;;
13560;SDS011;6852;51.686;5.314;2023-03-14T01:22:54;6.53;;;0.90;;
13560;SDS011;6852;51.686;5.314;2023-03-14T01:25:21;7.00;;;1.03;;
13560;SDS011;6852;51.686;5.314;2023-03-14T01:27:48;3.77;;;1.10;;
13560;SDS011;6852;51.686;5.314;2023-03-14T01:30:15;4.97;;;1.07;;
13560;SDS011;6852;51.686;5.314;2023-03-14T01:32:42;6.03;;;1.37;;
13560;SDS011;6852;51.686;5.314;2023-03-14T01:35:09;5.37;;;1.17;;
13560;SDS011;6852;51.686;5.314;2023-03-14T01:37:36;4.07;;;1.20;;
13560;SDS011;6852;51.686;5.314;2023-03-14T01:40:03;5.50;;;1.13;;
13560;SDS011;6852;51.686;5.314;2023-03-14T01:42:31;4.17;;;1.03;;
13560;SDS011;6852;51.686;5.314;2023-03-14T01:45:00;4.03;;;0.93;;
13560;SDS011;6852;51.686;5.314;2023-03-14T01:47:27;5.30;;;1.00;;
13560;SDS011;6852;51.686;5.314;2023-03-14T01:50:04;3.40;;;1.00;;
13560;SDS011;6852;51.686;5.314;2023-03-14T01:52:39;4.30;;;0.80;;
13560;SDS011;6852;51.686;5.314;2023-03-14T01:55:17;5.97;;;1.10;;
13560;SDS011;6852;51.686;5.314;2023-03-14T01:57:48;4.97;;;1.20;;
13560;SDS011;6852;51.686;5.314;2023-03-14T02:00:22;6.53;;;1.07;;
13560;SDS011;6852;51.686;5.314;2023-03-14T02:02:56;6.60;;;1.13;;
13560;SDS011;6852;51.686;5.314;2023-03-14T02:05:31;4.47;;;1.00;;
13560;SDS011;6852;51.686;5.314;2023-03-14T02:08:01;5.47;;;1.03;;
13560;SDS011;6852;51.686;5.314;2023-03-14T02:10:32;2.33;;;0.83;;
13560;SDS011;6852;51.686;5.314;2023-03-14T02:13:03;4.47;;;1.00;;
13560;SDS011;6852;51.686;5.314;2023-03-14T02:15:32;5.03;;;1.37;;
13560;SDS011;6852;51.686;5.314;2023-03-14T02:17:59;5.23;;;1.07;;
13560;SDS011;6852;51.686;5.314;2023-03-14T02:23:08;4.67;;;1.10;;
13560;SDS011;6852;51.686;5.314;2023-03-14T02:25:48;6.50;;;1.20;;
13560;SDS011;6852;51.686;5.314;2023-03-14T02:28:20;9.10;;;1.70;;
13560;SDS011;6852;51.686;5.314;2023-03-14T02:30:48;9.10;;;1.20;;
13560;SDS011;6852;51.686;5.314;2023-03-14T02:33:17;4.40;;;1.20;;
13560;SDS011;6852;51.686;5.314;2023-03-14T02:35:49;7.53;;;1.20;;
13560;SDS011;6852;51.686;5.314;2023-03-14T02:40:51;5.27;;;1.20;;
13560;SDS011;6852;51.686;5.314;2023-03-14T02:43:18;5.43;;;1.30;;
13560;SDS011;6852;51.686;5.314;2023-03-14T02:45:46;9.43;;;2.13;;
13560;SDS011;6852;51.686;5.314;2023-03-14T02:50:47;5.60;;;1.80;;
13560;SDS011;6852;51.686;5.314;2023-03-14T02:53:17;7.60;;;1.63;;
13560;SDS011;6852;51.686;5.314;2023-03-14T02:55:47;6.63;;;1.50;;
13560;SDS011;6852;51.686;5.314;2023-03-14T02:58:14;4.43;;;1.27;;
13560;SDS011;6852;51.686;5.314;2023-03-14T03:00:42;9.00;;;1.83;;
13560;SDS011;6852;51.686;5.314;2023-03-14T03:03:09;3.23;;;1.23;;
13560;SDS011;6852;51.686;5.314;2023-03-14T03:05:35;4.43;;;1.43;;
13560;SDS011;6852;51.686;5.314;2023-03-14T03:08:03;8.40;;;1.53;;
13560;SDS011;6852;51.686;5.314;2023-03-14T03:10:31;5.17;;;1.40;;
13560;SDS011;6852;51.686;5.314;2023-03-14T03:12:58;6.93;;;1.43;;
13560;SDS011;6852;51.686;5.314;2023-03-14T03:15:25;5.00;;;1.20;;
13560;SDS011;6852;51.686;5.314;2023-03-14T03:17:52;8.90;;;1.40;;
13560;SDS011;6852;51.686;5.314;2023-03-14T03:20:19;8.37;;;2.17;;
13560;SDS011;6852;51.686;5.314;2023-03-14T03:22:46;7.13;;;1.30;;
13560;SDS011;6852;51.686;5.314;2023-03-14T03:25:13;8.77;;;2.10;;
13560;SDS011;6852;51.686;5.314;2023-03-14T03:27:40;6.03;;;1.60;;
13560;SDS011;6852;51.686;5.314;2023-03-14T03:30:07;9.83;;;1.97;;
13560;SDS011;6852;51.686;5.314;2023-03-14T03:32:35;7.80;;;1.30;;
13560;SDS011;6852;51.686;5.314;2023-03-14T03:35:02;7.13;;;1.50;;
13560;SDS011;6852;51.686;5.314;2023-03-14T03:37:33;10.90;;;1.63;;
13560;SDS011;6852;51.686;5.314;2023-03-14T03:40:00;5.53;;;1.40;;
13560;SDS011;6852;51.686;5.314;2023-03-14T03:42:30;5.33;;;1.33;;
13560;SDS011;6852;51.686;5.314;2023-03-14T03:44:57;7.87;;;1.37;;
13560;SDS011;6852;51.686;5.314;2023-03-14T03:47:25;3.70;;;1.23;;
13560;SDS011;6852;51.686;5.314;2023-03-14T03:49:52;7.53;;;1.40;;
13560;SDS011;6852;51.686;5.314;2023-03-14T03:52:19;3.50;;;1.10;;
13560;SDS011;6852;51.686;5.314;2023-03-14T03:54:46;3.60;;;1.23;;
13560;SDS011;6852;51.686;5.314;2023-03-14T03:57:13;8.13;;;1.50;;
13560;SDS011;6852;51.686;5.314;2023-03-14T03:59:40;4.47;;;1.30;;
13560;SDS011;6852;51.686;5.314;2023-03-14T04:02:07;4.93;;;1.00;;
13560;SDS011;6852;51.686;5.314;2023-03-14T04:04:34;5.17;;;1.00;;
13560;SDS011;6852;51.686;5.314;2023-03-14T04:07:01;3.97;;;0.80;;
13560;SDS011;6852;51.686;5.314;2023-03-14T04:09:28;5.43;;;1.30;;
13560;SDS011;6852;51.686;5.314;2023-03-14T04:11:55;5.97;;;1.03;;
13560;SDS011;6852;51.686;5.314;2023-03-14T04:14:22;4.70;;;1.23;;
13560;SDS011;6852;51.686;5.314;2023-03-14T04:16:49;4.60;;;1.20;;
13560;SDS011;6852;51.686;5.314;2023-03-14T04:19:16;3.87;;;1.00;;
13560;SDS011;6852;51.686;5.314;2023-03-14T04:21:42;5.83;;;1.10;;
13560;SDS011;6852;51.686;5.314;2023-03-14T04:24:13;4.30;;;1.60;;
13560;SDS011;6852;51.686;5.314;2023-03-14T04:26:40;4.27;;;1.00;;
13560;SDS011;6852;51.686;5.314;2023-03-14T04:29:07;3.80;;;0.80;;
13560;SDS011;6852;51.686;5.314;2023-03-14T04:31:34;3.73;;;1.20;;
13560;SDS011;6852;51.686;5.314;2023-03-14T04:34:01;3.03;;;0.70;;
13560;SDS011;6852;51.686;5.314;2023-03-14T04:36:27;4.47;;;1.13;;
13560;SDS011;6852;51.686;5.314;2023-03-14T04:38:54;4.23;;;1.10;;
13560;SDS011;6852;51.686;5.314;2023-03-14T04:41:21;6.00;;;0.97;;
13560;SDS011;6852;51.686;5.314;2023-03-14T04:43:48;1.83;;;0.80;;
13560;SDS011;6852;51.686;5.314;2023-03-14T04:46:15;3.77;;;0.90;;
13560;SDS011;6852;51.686;5.314;2023-03-14T04:48:42;3.80;;;0.80;;
13560;SDS011;6852;51.686;5.314;2023-03-14T04:51:09;5.70;;;0.97;;
13560;SDS011;6852;51.686;5.314;2023-03-14T04:53:36;3.93;;;1.10;;
13560;SDS011;6852;51.686;5.314;2023-03-14T04:56:03;4.17;;;1.50;;
13560;SDS011;6852;51.686;5.314;2023-03-14T04:58:30;4.87;;;1.10;;
13560;SDS011;6852;51.686;5.314;2023-03-14T05:01:01;1.70;;;0.80;;
13560;SDS011;6852;51.686;5.314;2023-03-14T05:03:29;4.57;;;1.10;;
13560;SDS011;6852;51.686;5.314;2023-03-14T05:05:56;4.00;;;1.13;;
13560;SDS011;6852;51.686;5.314;2023-03-14T05:08:25;7.43;;;1.67;;
13560;SDS011;6852;51.686;5.314;2023-03-14T05:10:52;1.50;;;0.90;;
13560;SDS011;6852;51.686;5.314;2023-03-14T05:13:20;2.83;;;1.00;;
13560;SDS011;6852;51.686;5.314;2023-03-14T05:15:48;4.90;;;1.70;;
13560;SDS011;6852;51.686;5.314;2023-03-14T05:18:19;3.83;;;1.10;;
13560;SDS011;6852;51.686;5.314;2023-03-14T05:20:46;2.83;;;1.03;;
13560;SDS011;6852;51.686;5.314;2023-03-14T05:23:17;3.13;;;1.10;;
13560;SDS011;6852;51.686;5.314;2023-03-14T05:25:44;4.07;;;1.53;;
13560;SDS011;6852;51.686;5.314;2023-03-14T05:28:10;5.10;;;1.63;;
13560;SDS011;6852;51.686;5.314;2023-03-14T05:30:37;3.40;;;1.70;;
13560;SDS011;6852;51.686;5.314;2023-03-14T05:33:04;3.07;;;1.60;;
13560;SDS011;6852;51.686;5.314;2023-03-14T05:35:31;3.93;;;1.80;;
13560;SDS011;6852;51.686;5.314;2023-03-14T05:37:58;3.53;;;1.67;;
13560;SDS011;6852;51.686;5.314;2023-03-14T05:40:25;3.23;;;1.97;;
13560;SDS011;6852;51.686;5.314;2023-03-14T05:42:52;5.93;;;1.80;;
13560;SDS011;6852;51.686;5.314;2023-03-14T05:45:18;4.13;;;1.70;;
13560;SDS011;6852;51.686;5.314;2023-03-14T05:47:45;2.40;;;1.80;;
13560;SDS011;6852;51.686;5.314;2023-03-14T05:50:12;3.33;;;2.20;;
13560;SDS011;6852;51.686;5.314;2023-03-14T05:52:39;7.90;;;2.40;;
13560;SDS011;6852;51.686;5.314;2023-03-14T05:55:06;6.00;;;2.50;;
13560;SDS011;6852;51.686;5.314;2023-03-14T05:57:33;2.60;;;2.03;;
13560;SDS011;6852;51.686;5.314;2023-03-14T06:00:00;4.90;;;2.50;;
13560;SDS011;6852;51.686;5.314;2023-03-14T06:02:27;2.83;;;2.07;;
13560;SDS011;6852;51.686;5.314;2023-03-14T06:04:54;4.43;;;2.33;;
13560;SDS011;6852;51.686;5.314;2023-03-14T06:07:20;3.73;;;2.03;;
13560;SDS011;6852;51.686;5.314;2023-03-14T06:09:47;2.90;;;2.17;;
13560;SDS011;6852;51.686;5.314;2023-03-14T06:12:14;5.03;;;2.60;;
13560;SDS011;6852;51.686;5.314;2023-03-14T06:14:41;5.60;;;2.30;;
13560;SDS011;6852;51.686;5.314;2023-03-14T06:17:08;9.57;;;2.60;;
13560;SDS011;6852;51.686;5.314;2023-03-14T06:19:35;8.27;;;2.67;;
13560;SDS011;6852;51.686;5.314;2023-03-14T06:22:01;5.47;;;2.53;;
13560;SDS011;6852;51.686;5.314;2023-03-14T06:24:28;6.77;;;2.70;;
13560;SDS011;6852;51.686;5.314;2023-03-14T06:26:55;5.20;;;3.13;;
13560;SDS011;6852;51.686;5.314;2023-03-14T06:29:22;5.33;;;2.50;;
13560;SDS011;6852;51.686;5.314;2023-03-14T06:31:48;8.73;;;3.17;;
13560;SDS011;6852;51.686;5.314;2023-03-14T06:34:15;6.47;;;2.73;;
13560;SDS011;6852;51.686;5.314;2023-03-14T06:36:42;5.03;;;3.10;;
13560;SDS011;6852;51.686;5.314;2023-03-14T06:39:09;5.77;;;2.80;;
13560;SDS011;6852;51.686;5.314;2023-03-14T06:41:36;4.60;;;2.87;;
13560;SDS011;6852;51.686;5.314;2023-03-14T06:44:03;5.57;;;3.53;;
13560;SDS011;6852;51.686;5.314;2023-03-14T06:46:30;7.40;;;3.90;;
13560;SDS011;6852;51.686;5.314;2023-03-14T06:48:57;5.10;;;3.50;;
13560;SDS011;6852;51.686;5.314;2023-03-14T06:51:24;6.07;;;3.23;;
13560;SDS011;6852;51.686;5.314;2023-03-14T06:53:50;7.03;;;4.07;;
13560;SDS011;6852;51.686;5.314;2023-03-14T06:56:17;6.43;;;3.47;;
13560;SDS011;6852;51.686;5.314;2023-03-14T06:58:44;9.40;;;4.10;;
13560;SDS011;6852;51.686;5.314;2023-03-14T07:01:32;5.30;;;3.80;;
13560;SDS011;6852;51.686;5.314;2023-03-14T07:04:01;10.30;;;4.03;;
13560;SDS011;6852;51.686;5.314;2023-03-14T07:06:29;3.50;;;2.13;;
13560;SDS011;6852;51.686;5.314;2023-03-14T07:08:56;3.07;;;1.50;;
13560;SDS011;6852;51.686;5.314;2023-03-14T07:11:23;1.70;;;0.90;;
13560;SDS011;6852;51.686;5.314;2023-03-14T07:13:50;2.53;;;0.77;;
13560;SDS011;6852;51.686;5.314;2023-03-14T07:16:17;2.70;;;0.80;;
13560;SDS011;6852;51.686;5.314;2023-03-14T07:18:43;4.57;;;0.70;;
13560;SDS011;6852;51.686;5.314;2023-03-14T07:21:11;2.10;;;0.63;;
13560;SDS011;6852;51.686;5.314;2023-03-14T07:23:38;3.13;;;0.70;;
13560;SDS011;6852;51.686;5.314;2023-03-14T07:26:05;2.13;;;0.67;;
13560;SDS011;6852;51.686;5.314;2023-03-14T07:28:32;1.50;;;0.50;;
13560;SDS011;6852;51.686;5.314;2023-03-14T07:30:59;1.17;;;0.90;;
13560;SDS011;6852;51.686;5.314;2023-03-14T07:33:26;3.27;;;0.70;;
13560;SDS011;6852;51.686;5.314;2023-03-14T07:35:54;3.03;;;0.73;;
13560;SDS011;6852;51.686;5.314;2023-03-14T07:38:21;2.20;;;0.93;;
13560;SDS011;6852;51.686;5.314;2023-03-14T07:40:48;2.50;;;0.93;;
13560;SDS011;6852;51.686;5.314;2023-03-14T07:43:15;1.40;;;1.00;;
13560;SDS011;6852;51.686;5.314;2023-03-14T07:45:45;0.97;;;0.80;;
13560;SDS011;6852;51.686;5.314;2023-03-14T07:48:16;3.70;;;1.17;;
13560;SDS011;6852;51.686;5.314;2023-03-14T07:50:43;0.90;;;0.80;;
13560;SDS011;6852;51.686;5.314;2023-03-14T07:53:10;3.70;;;0.90;;
13560;SDS011;6852;51.686;5.314;2023-03-14T07:55:36;4.03;;;1.20;;
13560;SDS011;6852;51.686;5.314;2023-03-14T07:58:03;1.43;;;0.87;;
13560;SDS011;6852;51.686;5.314;2023-03-14T08:00:30;2.97;;;0.80;;
13560;SDS011;6852;51.686;5.314;2023-03-14T08:02:57;1.03;;;0.60;;
13560;SDS011;6852;51.686;5.314;2023-03-14T08:05:24;1.80;;;0.80;;
13560;SDS011;6852;51.686;5.314;2023-03-14T08:07:51;1.60;;;0.70;;
13560;SDS011;6852;51.686;5.314;2023-03-14T08:10:17;1.50;;;0.80;;
13560;SDS011;6852;51.686;5.314;2023-03-14T08:12:53;2.53;;;0.93;;
13560;SDS011;6852;51.686;5.314;2023-03-14T08:15:22;2.17;;;0.87;;
13560;SDS011;6852;51.686;5.314;2023-03-14T08:17:50;1.97;;;1.07;;
13560;SDS011;6852;51.686;5.314;2023-03-14T08:20:17;0.97;;;0.73;;
13560;SDS011;6852;51.686;5.314;2023-03-14T08:22:45;1.27;;;0.57;;
13560;SDS011;6852;51.686;5.314;2023-03-14T08:25:12;1.67;;;0.90;;
13560;SDS011;6852;51.686;5.314;2023-03-14T08:27:40;1.07;;;0.97;;
13560;SDS011;6852;51.686;5.314;2023-03-14T08:30:08;1.47;;;1.20;;
13560;SDS011;6852;51.686;5.314;2023-03-14T08:32:37;6.37;;;1.20;;
13560;SDS011;6852;51.686;5.314;2023-03-14T08:35:04;5.23;;;1.37;;
13560;SDS011;6852;51.686;5.314;2023-03-14T08:37:32;2.27;;;0.97;;
13560;SDS011;6852;51.686;5.314;2023-03-14T08:40:00;4.47;;;1.00;;
13560;SDS011;6852;51.686;5.314;2023-03-14T08:42:27;4.80;;;1.03;;
13560;SDS011;6852;51.686;5.314;2023-03-14T08:44:54;2.43;;;1.00;;
13560;SDS011;6852;51.686;5.314;2023-03-14T08:47:21;2.93;;;1.30;;
13560;SDS011;6852;51.686;5.314;2023-03-14T08:49:48;3.53;;;1.10;;
13560;SDS011;6852;51.686;5.314;2023-03-14T08:52:15;3.73;;;1.23;;
13560;SDS011;6852;51.686;5.314;2023-03-14T08:54:44;8.43;;;1.20;;
13560;SDS011;6852;51.686;5.314;2023-03-14T08:57:11;1.60;;;0.67;;
13560;SDS011;6852;51.686;5.314;2023-03-14T08:59:38;1.77;;;0.67;;
13560;SDS011;6852;51.686;5.314;2023-03-14T09:02:05;3.43;;;0.77;;
13560;SDS011;6852;51.686;5.314;2023-03-14T09:04:32;2.53;;;0.70;;
13560;SDS011;6852;51.686;5.314;2023-03-14T09:06:59;1.13;;;0.50;;
13560;SDS011;6852;51.686;5.314;2023-03-14T09:09:26;1.93;;;0.77;;
13560;SDS011;6852;51.686;5.314;2023-03-14T09:11:53;1.43;;;0.90;;
13560;SDS011;6852;51.686;5.314;2023-03-14T09:14:20;1.83;;;0.90;;
13560;SDS011;6852;51.686;5.314;2023-03-14T09:16:48;2.10;;;0.57;;
13560;SDS011;6852;51.686;5.314;2023-03-14T09:19:15;1.73;;;0.70;;
13560;SDS011;6852;51.686;5.314;2023-03-14T09:21:42;1.47;;;0.43;;
13560;SDS011;6852;51.686;5.314;2023-03-14T09:24:09;2.57;;;0.40;;
13560;SDS011;6852;51.686;5.314;2023-03-14T09:26:36;1.23;;;0.30;;
13560;SDS011;6852;51.686;5.314;2023-03-14T09:29:04;0.73;;;0.27;;
13560;SDS011;6852;51.686;5.314;2023-03-14T09:31:31;0.30;;;0.30;;
13560;SDS011;6852;51.686;5.314;2023-03-14T09:33:58;1.53;;;0.30;;
13560;SDS011;6852;51.686;5.314;2023-03-14T09:36:25;1.43;;;0.50;;
13560;SDS011;6852;51.686;5.314;2023-03-14T09:38:52;1.47;;;0.37;;
13560;SDS011;6852;51.686;5.314;2023-03-14T09:41:25;2.97;;;0.37;;
13560;SDS011;6852;51.686;5.314;2023-03-14T09:44:06;2.97;;;0.53;;
13560;SDS011;6852;51.686;5.314;2023-03-14T09:46:41;1.17;;;0.50;;
13560;SDS011;6852;51.686;5.314;2023-03-14T09:49:46;3.90;;;0.63;;
13560;SDS011;6852;51.686;5.314;2023-03-14T09:52:14;2.83;;;0.47;;
13560;SDS011;6852;51.686;5.314;2023-03-14T09:54:50;4.23;;;0.60;;
13560;SDS011;6852;51.686;5.314;2023-03-14T09:57:21;1.60;;;0.60;;
13560;SDS011;6852;51.686;5.314;2023-03-14T09:59:51;4.20;;;0.70;;
13560;SDS011;6852;51.686;5.314;2023-03-14T10:02:23;1.97;;;0.57;;
13560;SDS011;6852;51.686;5.314;2023-03-14T10:04:52;3.23;;;0.77;;
13560;SDS011;6852;51.686;5.314;2023-03-14T10:09:57;6.90;;;1.07;;
13560;SDS011;6852;51.686;5.314;2023-03-14T10:12:34;5.27;;;0.90;;
13560;SDS011;6852;51.686;5.314;2023-03-14T10:15:05;5.10;;;1.00;;
13560;SDS011;6852;51.686;5.314;2023-03-14T10:17:41;9.20;;;1.70;;
13560;SDS011;6852;51.686;5.314;2023-03-14T10:20:28;7.10;;;1.23;;
13560;SDS011;6852;51.686;5.314;2023-03-14T10:25:42;5.20;;;1.03;;
13560;SDS011;6852;51.686;5.314;2023-03-14T10:28:22;6.53;;;1.03;;
13560;SDS011;6852;51.686;5.314;2023-03-14T10:30:54;5.37;;;1.23;;
13560;SDS011;6852;51.686;5.314;2023-03-14T10:33:23;7.97;;;1.20;;
13560;SDS011;6852;51.686;5.314;2023-03-14T10:35:53;7.40;;;1.10;;
13560;SDS011;6852;51.686;5.314;2023-03-14T10:38:35;10.63;;;1.40;;
13560;SDS011;6852;51.686;5.314;2023-03-14T10:41:05;11.20;;;2.20;;
13560;SDS011;6852;51.686;5.314;2023-03-14T10:43:56;10.03;;;1.97;;
13560;SDS011;6852;51.686;5.314;2023-03-14T10:46:25;6.07;;;1.03;;
13560;SDS011;6852;51.686;5.314;2023-03-14T10:48:56;8.97;;;1.77;;
13560;SDS011;6852;51.686;5.314;2023-03-14T10:51:27;10.83;;;1.67;;
13560;SDS011;6852;51.686;5.314;2023-03-14T10:53:58;5.47;;;1.43;;
13560;SDS011;6852;51.686;5.314;2023-03-14T10:56:27;7.80;;;1.27;;
13560;SDS011;6852;51.686;5.314;2023-03-14T10:59:00;6.10;;;1.30;;
13560;SDS011;6852;51.686;5.314;2023-03-14T11:05:00;7.13;;;1.10;;
13560;SDS011;6852;51.686;5.314;2023-03-14T11:10:00;8.50;;;1.77;;
13560;SDS011;6852;51.686;5.314;2023-03-14T11:21:21;4.17;;;1.03;;
13560;SDS011;6852;51.686;5.314;2023-03-14T11:24:00;9.57;;;1.93;;
13560;SDS011;6852;51.686;5.314;2023-03-14T11:31:49;5.67;;;1.70;;
13560;SDS011;6852;51.686;5.314;2023-03-14T11:37:22;9.40;;;1.67;;
13560;SDS011;6852;51.686;5.314;2023-03-14T11:42:42;11.30;;;2.57;;
13560;SDS011;6852;51.686;5.314;2023-03-14T11:45:15;10.43;;;1.73;;
13560;SDS011;6852;51.686;5.314;2023-03-14T11:47:45;9.27;;;1.57;;
13560;SDS011;6852;51.686;5.314;2023-03-14T11:58:36;8.20;;;1.47;;
13560;SDS011;6852;51.686;5.314;2023-03-14T12:00:57;7.10;;;1.17;;
13560;SDS011;6852;51.686;5.314;2023-03-14T12:03:31;4.30;;;1.20;;
13560;SDS011;6852;51.686;5.314;2023-03-14T12:08:42;5.33;;;1.67;;
13560;SDS011;6852;51.686;5.314;2023-03-14T12:14:29;6.33;;;1.90;;
13560;SDS011;6852;51.686;5.314;2023-03-14T12:19:34;12.63;;;2.17;;
13560;SDS011;6852;51.686;5.314;2023-03-14T12:24:53;10.03;;;2.00;;
13560;SDS011;6852;51.686;5.314;2023-03-14T12:27:41;8.13;;;2.37;;
13560;SDS011;6852;51.686;5.314;2023-03-14T12:35:49;7.53;;;2.40;;
13560;SDS011;6852;51.686;5.314;2023-03-14T12:38:23;14.50;;;2.50;;
13560;SDS011;6852;51.686;5.314;2023-03-14T12:40:56;7.87;;;2.33;;
13560;SDS011;6852;51.686;5.314;2023-03-14T12:43:29;8.60;;;2.13;;
13560;SDS011;6852;51.686;5.314;2023-03-14T12:48:39;6.87;;;1.40;;
13560;SDS011;6852;51.686;5.314;2023-03-14T12:51:16;7.07;;;1.33;;
13560;SDS011;6852;51.686;5.314;2023-03-14T12:59:23;8.33;;;1.17;;
13560;SDS011;6852;51.686;5.314;2023-03-14T13:01:58;2.77;;;0.83;;
13560;SDS011;6852;51.686;5.314;2023-03-14T13:04:31;4.50;;;1.17;;
13560;SDS011;6852;51.686;5.314;2023-03-14T13:07:10;5.03;;;1.27;;
13560;SDS011;6852;51.686;5.314;2023-03-14T13:15:18;8.97;;;1.27;;
13560;SDS011;6852;51.686;5.314;2023-03-14T13:17:46;6.13;;;1.40;;
13560;SDS011;6852;51.686;5.314;2023-03-14T13:20:17;11.17;;;1.40;;
13560;SDS011;6852;51.686;5.314;2023-03-14T13:22:57;5.67;;;1.30;;
13560;SDS011;6852;51.686;5.314;2023-03-14T13:25:24;6.97;;;1.47;;
13560;SDS011;6852;51.686;5.314;2023-03-14T13:27:57;6.60;;;1.73;;
13560;SDS011;6852;51.686;5.314;2023-03-14T13:30:26;7.17;;;1.37;;
13560;SDS011;6852;51.686;5.314;2023-03-14T13:33:18;4.13;;;1.30;;
13560;SDS011;6852;51.686;5.314;2023-03-14T13:36:08;5.17;;;1.07;;
13560;SDS011;6852;51.686;5.314;2023-03-14T13:38:35;4.93;;;1.30;;
13560;SDS011;6852;51.686;5.314;2023-03-14T13:41:06;7.23;;;1.10;;
13560;SDS011;6852;51.686;5.314;2023-03-14T13:43:39;3.50;;;1.13;;
13560;SDS011;6852;51.686;5.314;2023-03-14T13:46:19;6.03;;;1.20;;
13560;SDS011;6852;51.686;5.314;2023-03-14T13:49:09;4.40;;;0.90;;
13560;SDS011;6852;51.686;5.314;2023-03-14T13:51:38;2.27;;;1.57;;
13560;SDS011;6852;51.686;5.314;2023-03-14T13:54:16;5.00;;;1.10;;
13560;SDS011;6852;51.686;5.314;2023-03-14T13:56:47;7.93;;;1.40;;
13560;SDS011;6852;51.686;5.314;2023-03-14T13:59:24;4.93;;;1.10;;
13560;SDS011;6852;51.686;5.314;2023-03-14T14:01:52;5.97;;;1.60;;
13560;SDS011;6852;51.686;5.314;2023-03-14T14:04:23;6.93;;;1.37;;
13560;SDS011;6852;51.686;5.314;2023-03-14T14:06:54;5.30;;;1.10;;
13560;SDS011;6852;51.686;5.314;2023-03-14T14:09:29;2.87;;;1.03;;
13560;SDS011;6852;51.686;5.314;2023-03-14T14:12:02;4.33;;;1.27;;
13560;SDS011;6852;51.686;5.314;2023-03-14T14:17:40;6.63;;;1.30;;
13560;SDS011;6852;51.686;5.314;2023-03-14T14:20:20;6.10;;;1.30;;
13560;SDS011;6852;51.686;5.314;2023-03-14T14:22:48;1.67;;;0.80;;
13560;SDS011;6852;51.686;5.314;2023-03-14T14:25:16;4.27;;;1.30;;
13560;SDS011;6852;51.686;5.314;2023-03-14T14:27:44;4.87;;;1.00;;
13560;SDS011;6852;51.686;5.314;2023-03-14T14:32:46;6.63;;;1.40;;
13560;SDS011;6852;51.686;5.314;2023-03-14T14:37:50;4.63;;;1.50;;
13560;SDS011;6852;51.686;5.314;2023-03-14T14:40:25;4.67;;;0.80;;
13560;SDS011;6852;51.686;5.314;2023-03-14T14:42:53;3.07;;;0.90;;
13560;SDS011;6852;51.686;5.314;2023-03-14T14:45:22;5.33;;;1.13;;
13560;SDS011;6852;51.686;5.314;2023-03-14T14:47:54;5.13;;;1.20;;
13560;SDS011;6852;51.686;5.314;2023-03-14T14:50:38;6.57;;;1.37;;
13560;SDS011;6852;51.686;5.314;2023-03-14T14:56:19;2.10;;;0.80;;
13560;SDS011;6852;51.686;5.314;2023-03-14T14:58:55;6.77;;;1.40;;
13560;SDS011;6852;51.686;5.314;2023-03-14T15:01:39;3.90;;;1.30;;
13560;SDS011;6852;51.686;5.314;2023-03-14T15:04:09;8.87;;;1.70;;
13560;SDS011;6852;51.686;5.314;2023-03-14T15:06:42;4.03;;;1.23;;
13560;SDS011;6852;51.686;5.314;2023-03-14T15:09:11;3.50;;;0.97;;
13560;SDS011;6852;51.686;5.314;2023-03-14T15:11:37;6.43;;;1.37;;
13560;SDS011;6852;51.686;5.314;2023-03-14T15:14:04;7.70;;;1.40;;
13560;SDS011;6852;51.686;5.314;2023-03-14T15:16:33;6.50;;;1.63;;
13560;SDS011;6852;51.686;5.314;2023-03-14T15:19:01;4.13;;;0.80;;
13560;SDS011;6852;51.686;5.314;2023-03-14T15:21:48;5.20;;;1.27;;
13560;SDS011;6852;51.686;5.314;2023-03-14T15:24:15;2.77;;;1.20;;
13560;SDS011;6852;51.686;5.314;2023-03-14T15:26:42;3.03;;;1.00;;
13560;SDS011;6852;51.686;5.314;2023-03-14T15:29:11;6.97;;;1.30;;
13560;SDS011;6852;51.686;5.314;2023-03-14T15:31:39;6.30;;;1.07;;
13560;SDS011;6852;51.686;5.314;2023-03-14T15:34:06;2.77;;;1.10;;
13560;SDS011;6852;51.686;5.314;2023-03-14T15:36:34;7.77;;;1.50;;
13560;SDS011;6852;51.686;5.314;2023-03-14T15:39:03;6.90;;;2.60;;
13560;SDS011;6852;51.686;5.314;2023-03-14T15:41:31;5.30;;;1.73;;
13560;SDS011;6852;51.686;5.314;2023-03-14T15:43:58;2.97;;;1.17;;
13560;SDS011;6852;51.686;5.314;2023-03-14T15:46:25;7.87;;;1.10;;
13560;SDS011;6852;51.686;5.314;2023-03-14T15:48:55;3.23;;;1.40;;
13560;SDS011;6852;51.686;5.314;2023-03-14T15:51:22;6.57;;;1.30;;
13560;SDS011;6852;51.686;5.314;2023-03-14T15:53:49;5.70;;;1.37;;
13560;SDS011;6852;51.686;5.314;2023-03-14T15:56:18;5.73;;;1.33;;
13560;SDS011;6852;51.686;5.314;2023-03-14T15:58:46;5.53;;;1.40;;
13560;SDS011;6852;51.686;5.314;2023-03-14T16:01:13;3.73;;;1.07;;
13560;SDS011;6852;51.686;5.314;2023-03-14T16:03:45;8.83;;;1.83;;
13560;SDS011;6852;51.686;5.314;2023-03-14T16:06:12;5.73;;;1.57;;
13560;SDS011;6852;51.686;5.314;2023-03-14T16:08:40;8.30;;;2.00;;
13560;SDS011;6852;51.686;5.314;2023-03-14T16:11:08;6.77;;;1.30;;
13560;SDS011;6852;51.686;5.314;2023-03-14T16:13:36;3.63;;;1.43;;
13560;SDS011;6852;51.686;5.314;2023-03-14T16:16:04;2.80;;;1.70;;
13560;SDS011;6852;51.686;5.314;2023-03-14T16:18:33;3.43;;;1.40;;
13560;SDS011;6852;51.686;5.314;2023-03-14T16:21:03;5.50;;;1.40;;
13560;SDS011;6852;51.686;5.314;2023-03-14T16:23:37;2.10;;;1.27;;
13560;SDS011;6852;51.686;5.314;2023-03-14T16:26:05;6.87;;;1.30;;
13560;SDS011;6852;51.686;5.314;2023-03-14T16:28:34;7.80;;;1.53;;
13560;SDS011;6852;51.686;5.314;2023-03-14T16:31:08;6.73;;;1.50;;
13560;SDS011;6852;51.686;5.314;2023-03-14T16:33:37;6.80;;;1.10;;
13560;SDS011;6852;51.686;5.314;2023-03-14T16:36:05;8.17;;;1.90;;
13560;SDS011;6852;51.686;5.314;2023-03-14T16:38:34;6.77;;;2.17;;
13560;SDS011;6852;51.686;5.314;2023-03-14T16:41:06;7.03;;;1.30;;
13560;SDS011;6852;51.686;5.314;2023-03-14T16:43:40;8.63;;;1.60;;